Hlavní strana
METAR-TAF:

METAR-TAF

Letiště :

Omsk, Rusko

zeměpisná šířka: 54-58N, zeměpisná délka: 073-18E, výška: 122 m

Aktuální stav počasí

Zpráva byla vytvořena před 30 minutami, v 09:00 UTC
Jihojihozápadní vítr 4 kt
Teplota -8°C
Vlhkost vzduchu 92%
Tlak 1020 hPa
Viditelnost: 8000 m

METAR: UNOO 110900Z 21002MPS 8000 NSC M08/M09 Q1020 R25/810250 NOSIG RMK QFE757

Čas: 15:30 (09:30 UTC)

Předpověď počasí

Zpráva byla vytvořena před 1 hodinou a 33 minutami, v 07:57 UTC
Předpověď platná od 11 v 09 UTC do 12 v 09 UTC
Jihojihozápadní vítr 6 kt s nárazy do 17 kt
Viditelnost: 5000 m
Polojasno ve výšce 700 ft
kouřmo, kouř
Dočasný
od 11 v 15 UTC do 12 v 04 UTC
Viditelnost: 0300 m
ve výšce 300 ft
mrznoucí mlha

TAF: UNOO 110757Z 1109/1209 20003G09MPS 5000 BR FU SCT007 TEMPO 1115/1204 0300 FZFG VV003

Stav a předpovědi počasí z více než 4 000 letišť (zprávy METAR a TAF).

Červené a žluté tečky na mapě představují dostupné meteorologické stanice.

Když kurzor umístíte na tečku, zobrazí se název stanice.

Pak kliknutím zobrazíte stav a předpověď počasí.

Chcete-li změnit mapu, kliknutím na zelené tlačítko se znaménkem +mapu přiblížíte, kliknutím na zelené tlačítko se znaménkem – mapu oddálíte a kliknutím na zelené šipky přejdete na sousední mapy.


METAR-TAF: